Weather History for KGDJ - November, 2013

Change the Weather History Date:

Wednesday, November 6, 2013

  Actual Average (KSEP) Record (KSEP)
Temperature  
Mean Temperature 56 °F -  
Max Temperature 70 °F 68 °F 86 °F (1989)
Min Temperature 42 °F 42 °F 26 °F (1959)
Degree Days  
Heating Degree Days 9    
Growing Degree Days 6 (Base 50)    
Moisture  
Dew Point 46 °F    
Average Humidity 73    
Maximum Humidity 92    
Minimum Humidity 42    
Precipitation  
Precipitation 0.19 in - - ()
Sea Level Pressure  
Sea Level Pressure 30.23 in    
Wind  
Wind Speed 10 mph (NW)    
Max Wind Speed 18 mph    
Max Gust Speed 26 mph    
Visibility 10 miles    
Events Rain    
Averages and records for this station are not official NWS values.
T = Trace of Precipitation, MM = Missing Value Source: NWS Daily Summary

Daily Weather History Graph

Daily Weather History Graph

Search for Another Location

Airport or City:

Trip Planner

Search our weather history database for the weather conditions in past years. The results will help you decide how hot, cold, wet, or windy it might be!

Date:

Astronomy

Nov. 06, 2013 Rise Set
Actual Time 6:53 AM CST 5:36 PM CST
Civil Twilight 6:27 AM CST 6:01 PM CST
Nautical Twilight 5:58 AM CST 6:31 PM CST
Astronomical Twilight 5:29 AM CST 7:00 PM CST
Moon 10:04 AM CST 8:46 PM CST
Length of Visible Light 11h 34m
Length of Day
10h 43m
Waxing Crescent, 14% of the Moon is Illuminated
Nov 6
Waxing Crescent
Nov 9
First Quarter
Nov 17
Full
Nov 25
Last Quarter
Dec 2
New

Hourly Weather History & Observations

Time (CST) Temp. Windchill Dew Point Humidity Pressure Visibility Wind Dir Wind Speed Gust Speed Precip Events Conditions
12:35 AM 70.7 °F - 67.3 °F 89% 29.99 in 10.0 mi South 9.2 mph - N/A   Mostly Cloudy
12:55 AM 70.7 °F - 67.3 °F 89% 29.99 in 10.0 mi South 6.9 mph - N/A   Overcast
1:15 AM 70.3 °F - 67.1 °F 89% 29.98 in 10.0 mi SSE 6.9 mph - N/A   Overcast
1:35 AM 70.2 °F - 67.1 °F 90% 29.98 in 10.0 mi SSE 3.5 mph - N/A   Overcast
1:55 AM 69.8 °F - 66.6 °F 89% 29.99 in 10.0 mi Calm Calm - N/A   Scattered Clouds
2:15 AM 69.8 °F - 66.7 °F 90% 29.98 in 10.0 mi Calm Calm - N/A   Mostly Cloudy
2:35 AM 68.9 °F - 66.2 °F 91% 29.98 in 10.0 mi SE 3.5 mph - N/A   Mostly Cloudy
2:55 AM 67.6 °F - 65.3 °F 92% 30.00 in 5.0 mi NW 3.5 mph - N/A   Mostly Cloudy
3:15 AM 68.7 °F - 66.4 °F 92% 30.00 in 7.0 mi Calm Calm - N/A   Overcast
3:35 AM 67.5 °F - 64.9 °F 92% 30.02 in 3.0 mi NW 16.1 mph 26.5 mph 0.14 in Rain Heavy Rain
3:55 AM 60.6 °F - 58.1 °F 91% 30.05 in 10.0 mi NW 16.1 mph 25.3 mph 0.19 in Rain Light Rain
4:15 AM 58.8 °F - 56.3 °F 91% 30.06 in 10.0 mi NW 17.3 mph - N/A   Overcast
4:35 AM 57.2 °F - 54.3 °F 90% 30.07 in 10.0 mi NNW 16.1 mph - N/A Rain Light Rain
4:55 AM 56.5 °F - 53.6 °F 90% 30.09 in 10.0 mi NW 10.4 mph 16.1 mph N/A   Overcast
5:15 AM 55.6 °F - 52.2 °F 88% 30.10 in 10.0 mi NNW 15.0 mph - N/A   Overcast
5:35 AM 54.7 °F - 51.3 °F 88% 30.11 in 10.0 mi NNW 10.4 mph - N/A   Overcast
5:55 AM 54.0 °F - 50.5 °F 88% 30.12 in 10.0 mi NW 12.7 mph 18.4 mph N/A   Overcast
6:15 AM 53.1 °F - 49.8 °F 89% 30.13 in 10.0 mi NW 18.4 mph 23.0 mph N/A   Overcast
6:35 AM 52.5 °F - 48.6 °F 86% 30.15 in 10.0 mi NW 15.0 mph 20.7 mph N/A   Overcast
6:55 AM 51.8 °F - 47.3 °F 85% 30.17 in 10.0 mi NW 13.8 mph 24.2 mph N/A   Overcast
7:15 AM 51.6 °F - 46.6 °F 83% 30.19 in 10.0 mi NW 15.0 mph 20.7 mph N/A   Overcast
7:35 AM 51.1 °F - 45.5 °F 81% 30.19 in 10.0 mi NW 16.1 mph 23.0 mph N/A   Overcast
7:55 AM 51.3 °F - 45.0 °F 79% 30.20 in 10.0 mi NW 17.3 mph 25.3 mph N/A   Overcast
8:15 AM 51.1 °F - 44.6 °F 78% 30.22 in 10.0 mi NW 15.0 mph 24.2 mph N/A Rain Light Rain
8:35 AM 50.5 °F - 44.1 °F 78% 30.23 in 10.0 mi NW 17.3 mph 24.2 mph N/A   Overcast
8:55 AM 50.0 °F - 44.1 °F 80% 30.23 in 10.0 mi NW 13.8 mph 17.3 mph N/A Rain Light Rain
9:15 AM 49.6 °F - 43.9 °F 81% 30.25 in 10.0 mi NNW 13.8 mph 21.9 mph N/A   Mostly Cloudy
9:35 AM 49.3 °F - 43.2 °F 79% 30.25 in 10.0 mi NW 15.0 mph - N/A   Scattered Clouds
9:55 AM 48.9 °F - 42.1 °F 77% 30.26 in 10.0 mi NW 16.1 mph 20.7 mph N/A   Clear
10:15 AM 49.3 °F - 41.9 °F 76% 30.26 in 10.0 mi NW 15.0 mph 20.7 mph N/A   Scattered Clouds
10:35 AM 49.3 °F - 41.4 °F 74% 30.29 in 10.0 mi NW 16.1 mph 21.9 mph N/A   Mostly Cloudy
10:55 AM 49.8 °F - 41.7 °F 74% 30.28 in 10.0 mi NNW 15.0 mph 21.9 mph N/A   Mostly Cloudy
11:15 AM 50.4 °F - 41.9 °F 73% 30.27 in 10.0 mi NW 16.1 mph 23.0 mph N/A   Scattered Clouds
11:35 AM 50.4 °F - 41.5 °F 72% 30.28 in 10.0 mi NW 16.1 mph 21.9 mph N/A   Clear
11:55 AM 51.3 °F - 41.9 °F 70% 30.28 in 10.0 mi NW 15.0 mph - N/A   Clear
12:15 PM 52.2 °F - 42.4 °F 69% 30.28 in 10.0 mi NW 13.8 mph 18.4 mph N/A   Clear
12:35 PM 52.7 °F - 41.7 °F 66% 30.28 in 10.0 mi NW 15.0 mph 21.9 mph N/A   Clear
12:55 PM 54.1 °F - 42.4 °F 65% 30.27 in 10.0 mi NW 9.2 mph - N/A   Clear
1:15 PM 56.3 °F - 43.2 °F 61% 30.27 in 10.0 mi North 10.4 mph 17.3 mph N/A   Clear
1:35 PM 58.3 °F - 42.6 °F 56% 30.27 in 10.0 mi NNW 11.5 mph 18.4 mph N/A   Clear
1:55 PM 59.5 °F - 41.5 °F 51% 30.27 in 10.0 mi NW 12.7 mph 17.3 mph N/A   Clear
2:15 PM 60.4 °F - 41.7 °F 50% 30.27 in 10.0 mi NNW 12.7 mph 18.4 mph N/A   Clear
2:35 PM 60.8 °F - 41.2 °F 48% 30.27 in 10.0 mi NNW 9.2 mph 12.7 mph N/A   Clear
2:55 PM 61.3 °F - 41.2 °F 48% 30.27 in 10.0 mi NNW 10.4 mph 17.3 mph N/A   Clear
3:15 PM 61.5 °F - 40.3 °F 46% 30.27 in 10.0 mi NW 10.4 mph 16.1 mph N/A   Clear
3:35 PM 61.7 °F - 39.9 °F 45% 30.27 in 10.0 mi NNW 10.4 mph - N/A   Clear
3:55 PM 61.2 °F - 38.7 °F 43% 30.28 in 10.0 mi NNW 11.5 mph - N/A   Clear
4:15 PM 61.2 °F - 37.8 °F 42% 30.28 in 10.0 mi NNW 12.7 mph 16.1 mph N/A   Clear
4:35 PM 60.3 °F - 38.5 °F 44% 30.28 in 10.0 mi NNW 9.2 mph - N/A   Clear
4:55 PM 59.5 °F - 40.1 °F 49% 30.28 in 10.0 mi NNW 8.1 mph - N/A   Clear
5:15 PM 58.1 °F - 39.9 °F 51% 30.29 in 10.0 mi NNW 8.1 mph - N/A   Clear
5:35 PM 55.9 °F - 40.6 °F 56% 30.29 in 10.0 mi NNW 4.6 mph - N/A   Clear
5:55 PM 54.9 °F - 40.5 °F 58% 30.30 in 10.0 mi NW 4.6 mph - N/A   Clear
6:15 PM 53.6 °F - 40.5 °F 61% 30.31 in 10.0 mi NW 5.8 mph - N/A   Clear
6:35 PM 53.1 °F - 39.7 °F 61% 30.32 in 10.0 mi NW 6.9 mph - N/A   Clear
6:55 PM 51.8 °F - 39.6 °F 63% 30.33 in 10.0 mi NW 6.9 mph - N/A   Clear
7:15 PM 52.2 °F - 38.5 °F 60% 30.33 in 10.0 mi NW 6.9 mph - N/A   Clear
7:35 PM 50.4 °F - 38.8 °F 65% 30.34 in 10.0 mi NW 5.8 mph - N/A   Clear
7:55 PM 49.8 °F - 39.2 °F 67% 30.34 in 10.0 mi NW 3.5 mph - N/A   Clear
8:15 PM 48.2 °F - 38.7 °F 70% 30.35 in 10.0 mi NW 5.8 mph - N/A   Clear
8:35 PM 47.7 °F - 38.7 °F 71% 30.36 in 10.0 mi NW 4.6 mph - N/A   Clear
8:55 PM 47.3 °F - 38.5 °F 71% 30.36 in 10.0 mi NW 5.8 mph - N/A   Clear
9:15 PM 47.5 °F - 38.7 °F 71% 30.37 in 10.0 mi NW 4.6 mph - N/A   Clear
9:35 PM 46.6 °F - 38.5 °F 73% 30.37 in 10.0 mi NW 4.6 mph - N/A   Clear
9:55 PM 45.9 °F 43.6 °F 38.1 °F 74% 30.39 in 10.0 mi WNW 4.6 mph - N/A   Clear
10:15 PM 44.6 °F 42.2 °F 37.8 °F 77% 30.40 in 10.0 mi WNW 4.6 mph - N/A   Clear
10:35 PM 43.9 °F 42.3 °F 37.6 °F 78% 30.40 in 10.0 mi West 3.5 mph - N/A   Clear
10:55 PM 43.2 °F 40.5 °F 37.4 °F 80% 30.40 in 10.0 mi WNW 4.6 mph - N/A   Clear
11:15 PM 43.0 °F 40.3 °F 37.4 °F 81% 30.40 in 10.0 mi WNW 4.6 mph - N/A   Clear
11:35 PM 42.3 °F 39.4 °F 36.9 °F 81% 30.40 in 10.0 mi WNW 4.6 mph - N/A   Clear
11:55 PM 42.3 °F 40.5 °F 36.5 °F 80% 30.40 in 10.0 mi WNW 3.5 mph - N/A   Clear